Time;durP1;ratioP1;P1;durP2;ratioP2;P2;SDS_P1;SDS_P2;PMS_P1;PMS_P2;Temp;Humidity;BMP_temperature;BMP_pressure;BME280_temperature;BME280_humidity;BME280_pressure;Samples;Min_cycle;Max_cycle;Signal;HPM_P1;HPM_P2
2023/05/20 00:00:09;;;;;;;23.40;15.20;;;;;;;;;;6197483;28;20056;-81
2023/05/20 00:03:11;;;;;;;28.03;17.70;;;;;;;;;;6198346;28;20086;-81
2023/05/20 00:06:14;;;;;;;25.70;16.25;;;;;;;;;;6197543;28;20085;-81
2023/05/20 00:09:16;;;;;;;22.17;15.57;;;;;;;;;;6194331;28;20060;-81
2023/05/20 00:12:18;;;;;;;24.70;16.35;;;;;;;;;;6194321;28;20319;-80
2023/05/20 00:15:20;;;;;;;23.13;15.60;;;;;;;;;;6196725;28;20064;-84
2023/05/20 00:18:22;;;;;;;25.00;15.68;;;;;;;;;;6196431;28;20093;-84
2023/05/20 00:21:25;;;;;;;21.65;14.48;;;;;;;;;;6194741;28;20046;-81
2023/05/20 00:24:27;;;;;;;19.10;13.55;;;;;;;;;;6194337;28;20081;-81
2023/05/20 00:27:29;;;;;;;19.73;13.43;;;;;;;;;;6194575;28;20046;-81
2023/05/20 00:30:31;;;;;;;17.17;12.95;;;;;;;;;;6193825;28;20054;-81
2023/05/20 00:33:33;;;;;;;16.08;11.80;;;;;;;;;;6196452;28;20054;-79
2023/05/20 00:36:36;;;;;;;18.80;12.45;;;;;;;;;;6191743;28;20054;-80
2023/05/20 00:39:38;;;;;;;18.38;12.68;;;;;;;;;;6195094;28;20326;-79
2023/05/20 00:42:40;;;;;;;18.17;13.00;;;;;;;;;;6195288;28;20058;-82
2023/05/20 00:45:44;;;;;;;16.35;12.15;;;;;;;;;;6193880;28;20053;-83
2023/05/20 00:48:46;;;;;;;17.60;12.82;;;;;;;;;;6196666;28;20047;-83
2023/05/20 00:51:49;;;;;;;16.52;12.10;;;;;;;;;;6192457;28;20235;-82
2023/05/20 00:54:51;;;;;;;17.95;12.07;;;;;;;;;;6194569;28;20314;-82
2023/05/20 00:57:53;;;;;;;19.85;12.68;;;;;;;;;;6192767;28;20054;-81
2023/05/20 01:00:58;;;;;;;15.73;11.93;;;;;;;;;;6195039;28;20046;-83
2023/05/20 01:04:00;;;;;;;20.67;13.07;;;;;;;;;;6191914;28;20057;-82
2023/05/20 01:07:04;;;;;;;18.55;12.65;;;;;;;;;;6194098;28;20125;-77
2023/05/20 01:10:07;;;;;;;59.95;35.58;;;;;;;;;;6193688;28;20053;-79
2023/05/20 01:13:11;;;;;;;21.58;14.57;;;;;;;;;;6193819;28;20350;-80
2023/05/20 01:16:14;;;;;;;63.33;38.03;;;;;;;;;;6196863;28;20082;-80
2023/05/20 01:19:22;;;;;;;21.00;15.53;;;;;;;;;;6195110;28;20062;-80
2023/05/20 01:22:26;;;;;;;16.77;12.02;;;;;;;;;;6193170;28;20237;-79
2023/05/20 01:25:28;;;;;;;30.48;18.90;;;;;;;;;;6195682;28;20338;-82
2023/05/20 01:28:30;;;;;;;25.75;16.33;;;;;;;;;;6194422;28;20246;-82
2023/05/20 01:31:35;;;;;;;14.18;9.93;;;;;;;;;;6195232;28;20117;-80
2023/05/20 01:34:37;;;;;;;13.80;9.77;;;;;;;;;;6197476;28;20062;-82
2023/05/20 01:37:41;;;;;;;13.68;9.70;;;;;;;;;;6190980;28;20054;-79
2023/05/20 01:40:43;;;;;;;13.98;9.52;;;;;;;;;;6195350;28;20318;-80
2023/05/20 01:43:45;;;;;;;12.68;9.15;;;;;;;;;;6192021;28;20075;-79
2023/05/20 01:46:49;;;;;;;12.23;9.23;;;;;;;;;;6193214;28;20065;-82
2023/05/20 01:49:52;;;;;;;14.27;9.10;;;;;;;;;;6194855;28;20100;-80
2023/05/20 01:52:55;;;;;;;11.55;9.65;;;;;;;;;;6193475;28;20248;-82
2023/05/20 01:55:57;;;;;;;12.70;8.93;;;;;;;;;;6195821;28;20054;-81
2023/05/20 01:58:59;;;;;;;13.13;9.40;;;;;;;;;;6193995;28;20365;-80
2023/05/20 02:02:01;;;;;;;13.60;10.30;;;;;;;;;;6192852;28;20058;-80
2023/05/20 02:05:02;;;;;;;13.75;9.80;;;;;;;;;;6193445;28;20082;-82
2023/05/20 02:08:06;;;;;;;14.32;9.73;;;;;;;;;;6193603;28;20065;-81
2023/05/20 02:11:07;;;;;;;13.23;10.40;;;;;;;;;;6192981;28;20046;-81
2023/05/20 02:14:09;;;;;;;13.15;10.13;;;;;;;;;;6191198;28;20105;-79
2023/05/20 02:17:11;;;;;;;13.20;9.60;;;;;;;;;;6196412;28;20053;-79
2023/05/20 02:20:13;;;;;;;15.43;9.38;;;;;;;;;;6200205;28;20055;-78
2023/05/20 02:23:16;;;;;;;14.05;9.68;;;;;;;;;;6196412;28;20055;-78
2023/05/20 02:26:19;;;;;;;13.32;8.88;;;;;;;;;;6194707;28;20105;-81
2023/05/20 02:29:21;;;;;;;12.32;9.27;;;;;;;;;;6194577;28;20397;-78
2023/05/20 02:32:26;;;;;;;10.60;8.70;;;;;;;;;;6198570;28;21476;-77
2023/05/20 02:35:28;;;;;;;11.82;7.95;;;;;;;;;;6199872;28;20073;-78
2023/05/20 02:38:31;;;;;;;12.60;8.85;;;;;;;;;;6199029;28;20093;-79
2023/05/20 02:41:33;;;;;;;11.23;8.43;;;;;;;;;;6196280;28;20230;-80
2023/05/20 02:44:34;;;;;;;11.60;8.43;;;;;;;;;;6197636;28;20545;-80
2023/05/20 02:47:36;;;;;;;10.30;7.80;;;;;;;;;;6197612;28;20080;-77
2023/05/20 02:50:39;;;;;;;10.98;7.63;;;;;;;;;;6197618;28;20077;-79
2023/05/20 02:53:42;;;;;;;10.20;7.23;;;;;;;;;;6199154;28;20051;-78
2023/05/20 02:56:44;;;;;;;9.77;7.23;;;;;;;;;;6199425;28;20102;-78
2023/05/20 02:59:46;;;;;;;8.23;6.93;;;;;;;;;;6197500;28;20050;-78
2023/05/20 03:02:47;;;;;;;8.23;6.35;;;;;;;;;;6200127;28;20062;-78
2023/05/20 03:05:49;;;;;;;6.28;5.18;;;;;;;;;;6195877;28;20063;-78
2023/05/20 03:08:52;;;;;;;6.40;5.07;;;;;;;;;;6198407;28;20110;-78
2023/05/20 03:11:54;;;;;;;5.50;4.85;;;;;;;;;;6196042;28;20050;-82
2023/05/20 03:14:57;;;;;;;5.85;4.40;;;;;;;;;;6198423;28;20211;-78
2023/05/20 03:17:59;;;;;;;5.55;4.40;;;;;;;;;;6195142;28;20054;-77
2023/05/20 03:21:01;;;;;;;5.82;4.50;;;;;;;;;;6198922;28;20678;-78
2023/05/20 03:24:05;;;;;;;6.28;4.45;;;;;;;;;;6197999;28;20046;-78
2023/05/20 03:27:06;;;;;;;5.50;3.85;;;;;;;;;;6196378;28;20086;-78
2023/05/20 03:30:09;;;;;;;5.60;4.38;;;;;;;;;;6197142;28;20053;-78
2023/05/20 03:33:11;;;;;;;5.32;3.92;;;;;;;;;;6197328;28;20132;-78
2023/05/20 03:36:12;;;;;;;5.45;4.10;;;;;;;;;;6196773;28;20339;-78
2023/05/20 03:39:15;;;;;;;5.10;3.95;;;;;;;;;;6195819;28;20054;-78
2023/05/20 03:42:17;;;;;;;5.40;3.53;;;;;;;;;;6196210;28;20224;-78
2023/05/20 03:45:19;;;;;;;4.53;3.63;;;;;;;;;;6196710;28;20054;-80
2023/05/20 03:48:20;;;;;;;4.20;3.13;;;;;;;;;;6198282;28;20274;-77
2023/05/20 03:51:22;;;;;;;6.15;3.78;;;;;;;;;;6195705;28;20062;-77
2023/05/20 03:54:25;;;;;;;3.78;3.30;;;;;;;;;;6198019;28;20061;-79
2023/05/20 03:57:28;;;;;;;5.43;3.27;;;;;;;;;;6195388;28;20058;-77
2023/05/20 04:00:30;;;;;;;4.93;3.03;;;;;;;;;;6192705;28;20303;-77
2023/05/20 04:03:32;;;;;;;5.35;3.00;;;;;;;;;;6193958;28;20074;-77
2023/05/20 04:06:34;;;;;;;6.28;3.30;;;;;;;;;;6198646;28;20054;-78
2023/05/20 04:09:37;;;;;;;3.72;2.90;;;;;;;;;;6195862;28;20193;-77
2023/05/20 04:12:40;;;;;;;5.47;3.23;;;;;;;;;;6196400;28;20070;-80
2023/05/20 04:15:41;;;;;;;4.45;3.13;;;;;;;;;;6195307;28;20042;-79
2023/05/20 04:18:44;;;;;;;6.57;3.10;;;;;;;;;;6197276;28;20062;-82
2023/05/20 04:21:46;;;;;;;4.50;3.05;;;;;;;;;;6196408;28;20047;-77
2023/05/20 04:24:49;;;;;;;3.72;2.90;;;;;;;;;;6199872;28;20101;-77
2023/05/20 04:27:52;;;;;;;7.05;3.50;;;;;;;;;;6196857;28;20050;-77
2023/05/20 04:30:58;;;;;;;5.55;3.15;;;;;;;;;;6194227;28;20054;-79
2023/05/20 04:34:01;;;;;;;3.90;3.10;;;;;;;;;;6195523;28;20069;-77
2023/05/20 04:37:03;;;;;;;4.20;3.20;;;;;;;;;;6195215;28;20290;-78
2023/05/20 04:40:08;;;;;;;4.70;3.20;;;;;;;;;;6194729;28;20140;-77
2023/05/20 04:43:09;;;;;;;4.50;3.55;;;;;;;;;;6191803;28;20395;-77
2023/05/20 04:46:11;;;;;;;5.40;3.60;;;;;;;;;;6196840;28;20101;-82
2023/05/20 04:49:14;;;;;;;6.60;3.65;;;;;;;;;;6194883;28;20054;-77
2023/05/20 04:52:15;;;;;;;5.93;3.70;;;;;;;;;;6194177;28;20220;-77
2023/05/20 04:55:20;;;;;;;4.68;3.38;;;;;;;;;;6195119;28;20069;-78
2023/05/20 04:58:23;;;;;;;4.22;3.65;;;;;;;;;;6193782;28;20043;-78
2023/05/20 05:01:24;;;;;;;5.60;3.58;;;;;;;;;;6194391;28;20055;-79
2023/05/20 05:04:26;;;;;;;6.22;4.28;;;;;;;;;;6195980;28;20117;-77
2023/05/20 05:07:28;;;;;;;6.13;4.68;;;;;;;;;;6192033;28;20058;-77
2023/05/20 05:10:31;;;;;;;5.28;4.05;;;;;;;;;;6193595;28;20050;-77
2023/05/20 05:13:32;;;;;;;7.90;4.53;;;;;;;;;;6193680;28;20267;-79
2023/05/20 05:16:34;;;;;;;6.65;4.75;;;;;;;;;;6194897;28;20055;-78
2023/05/20 05:19:35;;;;;;;5.50;4.72;;;;;;;;;;6193527;28;20093;-77
2023/05/20 05:22:39;;;;;;;5.88;4.65;;;;;;;;;;6193934;28;20386;-79
2023/05/20 05:25:42;;;;;;;5.43;4.27;;;;;;;;;;6194505;28;20050;-77
2023/05/20 05:28:43;;;;;;;6.50;4.67;;;;;;;;;;6192169;28;20874;-78
2023/05/20 05:31:45;;;;;;;6.38;4.22;;;;;;;;;;6192700;28;20059;-78
2023/05/20 05:34:46;;;;;;;7.63;4.82;;;;;;;;;;6195491;28;20062;-77
2023/05/20 05:37:48;;;;;;;6.38;4.15;;;;;;;;;;6192542;28;20058;-78
2023/05/20 05:40:51;;;;;;;7.28;4.90;;;;;;;;;;6192030;28;20058;-77
2023/05/20 05:43:54;;;;;;;5.67;4.20;;;;;;;;;;6193574;28;20058;-78
2023/05/20 05:46:55;;;;;;;6.45;3.90;;;;;;;;;;6192804;28;20392;-79
2023/05/20 05:49:57;;;;;;;5.80;3.90;;;;;;;;;;6192369;28;20055;-78
2023/05/20 05:52:58;;;;;;;6.60;4.03;;;;;;;;;;6195860;28;20076;-78
2023/05/20 05:56:01;;;;;;;5.78;3.80;;;;;;;;;;6191952;28;20050;-77
2023/05/20 05:59:04;;;;;;;4.57;3.83;;;;;;;;;;6194805;28;20152;-77
2023/05/20 06:02:06;;;;;;;5.55;3.90;;;;;;;;;;6193119;28;20105;-77
2023/05/20 06:05:08;;;;;;;5.70;3.92;;;;;;;;;;6191692;28;20235;-79
2023/05/20 06:08:10;;;;;;;5.57;3.55;;;;;;;;;;6192716;28;20349;-78
2023/05/20 06:11:13;;;;;;;4.28;3.55;;;;;;;;;;6191901;28;20270;-80
2023/05/20 06:14:15;;;;;;;3.97;3.17;;;;;;;;;;6193535;28;20093;-78
2023/05/20 06:17:17;;;;;;;3.28;2.90;;;;;;;;;;6194522;28;20496;-78
2023/05/20 06:20:19;;;;;;;3.92;2.75;;;;;;;;;;6192354;28;20478;-80
2023/05/20 06:23:20;;;;;;;3.88;2.70;;;;;;;;;;6194507;28;20125;-80
2023/05/20 06:26:23;;;;;;;4.95;2.78;;;;;;;;;;6194355;28;20059;-78
2023/05/20 06:29:25;;;;;;;4.05;2.58;;;;;;;;;;6195030;28;20344;-79
2023/05/20 06:32:27;;;;;;;3.63;2.80;;;;;;;;;;6193606;28;20408;-80
2023/05/20 06:35:28;;;;;;;5.38;3.08;;;;;;;;;;6193148;28;20405;-80
2023/05/20 06:38:30;;;;;;;5.22;2.70;;;;;;;;;;6195365;28;20058;-81
2023/05/20 06:41:33;;;;;;;3.60;2.65;;;;;;;;;;6193223;28;20330;-81
2023/05/20 06:44:35;;;;;;;4.87;2.67;;;;;;;;;;6191456;28;20053;-80
2023/05/20 06:47:36;;;;;;;4.07;3.00;;;;;;;;;;6189119;28;20204;-80
2023/05/20 06:50:38;;;;;;;3.63;2.85;;;;;;;;;;6193494;28;20054;-79
2023/05/20 06:53:40;;;;;;;5.43;3.40;;;;;;;;;;6190741;28;20096;-79
2023/05/20 06:56:43;;;;;;;4.00;3.00;;;;;;;;;;6193024;28;20065;-77
2023/05/20 06:59:45;;;;;;;7.32;3.40;;;;;;;;;;6192039;28;20129;-77
2023/05/20 07:02:47;;;;;;;10.00;3.70;;;;;;;;;;6194514;28;20220;-77
2023/05/20 07:05:50;;;;;;;4.50;3.55;;;;;;;;;;6190456;28;20239;-78
2023/05/20 07:08:52;;;;;;;5.22;3.42;;;;;;;;;;6197992;28;20050;-77
2023/05/20 07:11:55;;;;;;;4.72;3.72;;;;;;;;;;6198340;28;20323;-77
2023/05/20 07:14:56;;;;;;;6.30;4.00;;;;;;;;;;6196356;28;20246;-77
2023/05/20 07:17:58;;;;;;;5.20;3.50;;;;;;;;;;6194744;28;20054;-77
2023/05/20 07:21:00;;;;;;;5.85;3.92;;;;;;;;;;6195268;28;20058;-76
2023/05/20 07:24:01;;;;;;;7.80;4.13;;;;;;;;;;6196975;28;20234;-79
2023/05/20 07:27:04;;;;;;;5.65;3.83;;;;;;;;;;6196777;28;20046;-79
2023/05/20 07:30:07;;;;;;;5.30;3.92;;;;;;;;;;6194739;28;20113;-78
2023/05/20 07:33:09;;;;;;;9.32;4.40;;;;;;;;;;6192052;28;20062;-78
2023/05/20 07:36:11;;;;;;;8.43;4.07;;;;;;;;;;6196446;28;20934;-78
2023/05/20 07:39:13;;;;;;;8.20;5.18;;;;;;;;;;6195386;28;20069;-79
2023/05/20 07:42:16;;;;;;;6.85;4.35;;;;;;;;;;6196936;28;20366;-79
2023/05/20 07:45:18;;;;;;;5.90;4.30;;;;;;;;;;6196061;28;20062;-78
2023/05/20 07:48:19;;;;;;;7.05;5.05;;;;;;;;;;6196777;28;20106;-80
2023/05/20 07:51:21;;;;;;;5.80;4.60;;;;;;;;;;6193577;28;20066;-79
2023/05/20 07:54:23;;;;;;;7.95;4.32;;;;;;;;;;6195840;28;20058;-79
2023/05/20 07:57:26;;;;;;;8.45;4.90;;;;;;;;;;6194618;28;20070;-78
2023/05/20 08:00:27;;;;;;;5.78;4.72;;;;;;;;;;6195772;28;20062;-78
2023/05/20 08:03:29;;;;;;;6.80;4.65;;;;;;;;;;6196231;28;20053;-78
2023/05/20 08:06:31;;;;;;;6.43;4.72;;;;;;;;;;6195579;28;20165;-77
2023/05/20 08:09:34;;;;;;;5.95;4.85;;;;;;;;;;6195999;28;20073;-78
2023/05/20 08:12:37;;;;;;;7.97;4.70;;;;;;;;;;6196555;28;20069;-77
2023/05/20 08:15:39;;;;;;;6.10;4.27;;;;;;;;;;6196209;28;20066;-78
2023/05/20 08:18:41;;;;;;;7.10;4.47;;;;;;;;;;6194947;28;20477;-80
2023/05/20 08:21:43;;;;;;;9.80;4.85;;;;;;;;;;6191130;28;20147;-77
2023/05/20 08:24:44;;;;;;;6.50;4.90;;;;;;;;;;6196015;28;20347;-79
2023/05/20 08:27:47;;;;;;;7.85;5.18;;;;;;;;;;6196866;28;20228;-76
2023/05/20 08:30:50;;;;;;;5.95;4.82;;;;;;;;;;6193167;28;20181;-77
2023/05/20 08:33:52;;;;;;;6.17;4.73;;;;;;;;;;6194128;28;20054;-80
2023/05/20 08:36:54;;;;;;;10.18;4.55;;;;;;;;;;6191786;28;20050;-80
2023/05/20 08:39:56;;;;;;;7.53;4.78;;;;;;;;;;6196584;28;20054;-78
2023/05/20 08:43:00;;;;;;;6.65;4.70;;;;;;;;;;6193725;28;20133;-78
2023/05/20 08:46:05;;;;;;;7.35;4.57;;;;;;;;;;6195030;28;20058;-80
2023/05/20 08:49:07;;;;;;;11.82;5.10;;;;;;;;;;6195270;28;20282;-81
2023/05/20 08:52:10;;;;;;;5.90;4.50;;;;;;;;;;6191568;28;20046;-77
2023/05/20 08:55:17;;;;;;;7.50;4.50;;;;;;;;;;6194843;28;20327;-78
2023/05/20 08:58:20;;;;;;;6.47;5.05;;;;;;;;;;6195215;28;20148;-77
2023/05/20 09:01:24;;;;;;;6.97;5.30;;;;;;;;;;6195276;28;20057;-77
2023/05/20 09:04:26;;;;;;;7.05;5.55;;;;;;;;;;6197814;28;20054;-77
2023/05/20 09:07:28;;;;;;;6.22;4.88;;;;;;;;;;6197299;28;20061;-77
2023/05/20 09:10:29;;;;;;;6.15;4.88;;;;;;;;;;6195084;28;20440;-79
2023/05/20 09:13:33;;;;;;;8.07;5.07;;;;;;;;;;6193925;28;20058;-77
2023/05/20 09:16:34;;;;;;;8.15;5.13;;;;;;;;;;6193642;28;20105;-77
2023/05/20 09:19:36;;;;;;;8.15;4.80;;;;;;;;;;6194838;28;20722;-79
2023/05/20 09:22:40;;;;;;;7.68;4.30;;;;;;;;;;6192675;28;20466;-79
2023/05/20 09:25:42;;;;;;;6.57;5.13;;;;;;;;;;6194029;28;20058;-79
2023/05/20 09:28:45;;;;;;;8.88;5.22;;;;;;;;;;6193997;28;20328;-79
2023/05/20 09:31:46;;;;;;;7.13;5.13;;;;;;;;;;6196393;28;20210;-79
2023/05/20 09:34:48;;;;;;;8.27;5.43;;;;;;;;;;6194677;28;20117;-79
2023/05/20 09:37:53;;;;;;;6.55;5.13;;;;;;;;;;6195277;28;20051;-79
2023/05/20 09:40:55;;;;;;;6.70;5.50;;;;;;;;;;6195149;28;20318;-80
2023/05/20 09:43:59;;;;;;;8.15;5.30;;;;;;;;;;6192924;28;20132;-78
2023/05/20 09:47:01;;;;;;;6.93;5.18;;;;;;;;;;6194118;28;20270;-77
2023/05/20 09:50:03;;;;;;;9.05;5.40;;;;;;;;;;6190793;28;20415;-79
2023/05/20 09:53:05;;;;;;;7.90;4.82;;;;;;;;;;6195453;28;20250;-80
2023/05/20 09:56:07;;;;;;;6.38;4.65;;;;;;;;;;6195535;28;20125;-78
2023/05/20 09:59:10;;;;;;;7.95;4.80;;;;;;;;;;6192330;28;20054;-78
2023/05/20 10:02:12;;;;;;;6.88;5.07;;;;;;;;;;6196584;28;20059;-80
2023/05/20 10:05:19;;;;;;;7.32;4.97;;;;;;;;;;6194890;28;20042;-79
2023/05/20 10:08:37;;;;;;;8.20;5.20;;;;;;;;;;6195408;28;20070;-77
2023/05/20 10:11:43;;;;;;;5.97;4.63;;;;;;;;;;6191789;28;20283;-78
2023/05/20 10:14:55;;;;;;;5.60;4.57;;;;;;;;;;6194497;28;20078;-78
2023/05/20 10:18:02;;;;;;;5.90;4.95;;;;;;;;;;6205177;28;20061;-78
2023/05/20 10:21:15;;;;;;;6.68;5.10;;;;;;;;;;6195410;28;20105;-78
2023/05/20 10:24:17;;;;;;;8.07;5.22;;;;;;;;;;6195430;28;20057;-80
2023/05/20 10:27:18;;;;;;;8.57;5.30;;;;;;;;;;6193917;28;20050;-77
2023/05/20 10:30:22;;;;;;;7.65;5.43;;;;;;;;;;6194344;28;20353;-80
2023/05/20 10:33:24;;;;;;;;;;;;;;;;;;6195365;28;20062;-80
2023/05/20 10:36:27;;;;;;;7.78;5.57;;;;;;;;;;6197073;28;20091;-80
2023/05/20 10:39:32;;;;;;;7.77;6.20;;;;;;;;;;6195493;28;20050;-78
2023/05/20 10:42:34;;;;;;;8.02;5.80;;;;;;;;;;6198958;28;20046;-78
2023/05/20 10:45:48;;;;;;;7.65;5.18;;;;;;;;;;6198570;28;20156;-80
2023/05/20 10:48:49;;;;;;;7.97;5.32;;;;;;;;;;6197179;28;20286;-80
2023/05/20 10:51:51;;;;;;;10.00;5.55;;;;;;;;;;6195603;28;20054;-81
2023/05/20 10:54:56;;;;;;;8.00;5.50;;;;;;;;;;6196883;28;20062;-81
2023/05/20 10:57:58;;;;;;;8.80;5.82;;;;;;;;;;6197386;28;20073;-81
2023/05/20 11:01:02;;;;;;;7.25;5.15;;;;;;;;;;6196164;28;20054;-80
2023/05/20 11:04:04;;;;;;;6.55;4.97;;;;;;;;;;6172898;28;20312;-79
2023/05/20 11:07:06;;;;;;;7.18;4.72;;;;;;;;;;6172985;28;20055;-78
2023/05/20 11:10:09;;;;;;;7.90;5.47;;;;;;;;;;6173004;28;20050;-79
2023/05/20 11:13:12;;;;;;;10.05;6.05;;;;;;;;;;6174479;28;20358;-80
2023/05/20 11:16:15;;;;;;;8.20;5.53;;;;;;;;;;6175044;28;20090;-78
2023/05/20 11:19:17;;;;;;;6.10;4.53;;;;;;;;;;6175083;28;20062;-79
2023/05/20 11:22:19;;;;;;;5.38;3.88;;;;;;;;;;6188479;28;20516;-77
2023/05/20 11:25:22;;;;;;;5.95;3.95;;;;;;;;;;6170988;28;20086;-77
2023/05/20 11:28:24;;;;;;;9.25;3.88;;;;;;;;;;6182532;28;20054;-77
2023/05/20 11:31:27;;;;;;;6.00;3.92;;;;;;;;;;6178174;28;20350;-78
2023/05/20 11:34:33;;;;;;;6.10;4.03;;;;;;;;;;6174325;28;20050;-81
2023/05/20 11:37:36;;;;;;;5.13;3.45;;;;;;;;;;6176334;28;20061;-80
2023/05/20 11:40:37;;;;;;;5.25;3.60;;;;;;;;;;6187144;28;20066;-81
2023/05/20 11:43:41;;;;;;;6.68;4.00;;;;;;;;;;6175742;28;20046;-80
2023/05/20 11:46:46;;;;;;;6.40;3.72;;;;;;;;;;6171432;28;20331;-81
2023/05/20 11:49:49;;;;;;;3.85;3.20;;;;;;;;;;6182249;28;20093;-80
2023/05/20 11:52:57;;;;;;;7.78;4.18;;;;;;;;;;6179624;28;20055;-80
2023/05/20 11:56:00;;;;;;;4.53;3.35;;;;;;;;;;6169714;28;20147;-78
2023/05/20 11:59:01;;;;;;;6.88;4.00;;;;;;;;;;6173570;28;20074;-77
2023/05/20 12:02:05;;;;;;;5.57;4.30;;;;;;;;;;6181706;28;20050;-81
2023/05/20 12:05:07;;;;;;;7.25;4.18;;;;;;;;;;6196322;28;20377;-75
2023/05/20 12:08:09;;;;;;;8.25;4.95;;;;;;;;;;6195647;28;21117;-79
2023/05/20 12:11:10;;;;;;;6.28;3.97;;;;;;;;;;6197192;28;20097;-79
2023/05/20 12:14:12;;;;;;;7.47;4.20;;;;;;;;;;6197410;28;20054;-79
2023/05/20 12:17:15;;;;;;;6.03;4.72;;;;;;;;;;6192245;28;20054;-78
2023/05/20 12:20:18;;;;;;;9.47;4.80;;;;;;;;;;6195849;28;20349;-78
2023/05/20 12:23:20;;;;;;;8.43;5.93;;;;;;;;;;6193602;28;20080;-78
2023/05/20 12:26:22;;;;;;;6.93;5.25;;;;;;;;;;6200774;28;20117;-79
2023/05/20 12:29:24;;;;;;;9.07;5.20;;;;;;;;;;6198120;28;20051;-79
2023/05/20 12:32:27;;;;;;;6.85;4.95;;;;;;;;;;6198174;28;20373;-79
2023/05/20 12:35:37;;;;;;;6.73;4.93;;;;;;;;;;6195346;28;20050;-79
2023/05/20 12:38:38;;;;;;;7.45;5.90;;;;;;;;;;6196670;28;20136;-79
2023/05/20 12:41:41;;;;;;;6.47;4.60;;;;;;;;;;6196782;28;20105;-79
2023/05/20 12:44:42;;;;;;;6.68;5.25;;;;;;;;;;6197348;28;20334;-79
2023/05/20 12:47:45;;;;;;;6.55;4.43;;;;;;;;;;6194541;28;20319;-79
2023/05/20 12:50:47;;;;;;;5.43;4.43;;;;;;;;;;6196375;28;20081;-79
2023/05/20 12:53:49;;;;;;;6.40;4.45;;;;;;;;;;6198139;28;20442;-78
2023/05/20 12:56:50;;;;;;;7.60;4.35;;;;;;;;;;6195266;28;20058;-79
2023/05/20 12:59:52;;;;;;;6.97;4.45;;;;;;;;;;6195855;28;20055;-79
2023/05/20 13:02:56;;;;;;;6.45;4.22;;;;;;;;;;6193026;28;20054;-79
2023/05/20 13:05:59;;;;;;;7.87;4.53;;;;;;;;;;6195265;28;20144;-78
2023/05/20 13:09:01;;;;;;;6.40;4.80;;;;;;;;;;6198201;28;20480;-79
2023/05/20 13:12:02;;;;;;;5.63;4.15;;;;;;;;;;6194062;28;20046;-79
2023/05/20 13:15:05;;;;;;;4.40;3.67;;;;;;;;;;6195301;28;20065;-79
2023/05/20 13:18:09;;;;;;;5.53;4.00;;;;;;;;;;6196125;28;20053;-81
2023/05/20 13:21:11;;;;;;;6.22;3.80;;;;;;;;;;6195809;28;20046;-80
2023/05/20 13:24:12;;;;;;;5.53;3.42;;;;;;;;;;6197702;28;20132;-80
2023/05/20 13:27:14;;;;;;;8.65;4.20;;;;;;;;;;6197863;28;20334;-80
2023/05/20 13:30:16;;;;;;;3.65;3.30;;;;;;;;;;6190954;28;20062;-80
2023/05/20 13:33:19;;;;;;;5.07;3.35;;;;;;;;;;6194124;28;20287;-80
2023/05/20 13:36:20;;;;;;;5.63;3.30;;;;;;;;;;6194330;28;20070;-80
2023/05/20 13:39:22;;;;;;;3.50;2.47;;;;;;;;;;6193743;28;20338;-80
2023/05/20 13:42:24;;;;;;;3.85;2.92;;;;;;;;;;6194464;28;20102;-80
2023/05/20 13:45:26;;;;;;;4.28;2.55;;;;;;;;;;6195092;28;20054;-79
2023/05/20 13:48:29;;;;;;;2.97;2.17;;;;;;;;;;6192209;28;20054;-78
2023/05/20 13:51:31;;;;;;;3.10;1.90;;;;;;;;;;6192888;28;20050;-78
2023/05/20 13:54:32;;;;;;;5.03;2.20;;;;;;;;;;6195020;28;20073;-78
2023/05/20 13:57:34;;;;;;;2.65;1.90;;;;;;;;;;6190166;28;20270;-79
2023/05/20 14:00:36;;;;;;;3.17;2.00;;;;;;;;;;6194703;28;20101;-79
2023/05/20 14:03:39;;;;;;;2.88;1.90;;;;;;;;;;6190671;28;20047;-80
2023/05/20 14:06:41;;;;;;;3.25;1.90;;;;;;;;;;6193926;28;20631;-79
2023/05/20 14:09:43;;;;;;;3.35;2.00;;;;;;;;;;6190815;28;20117;-79
2023/05/20 14:12:46;;;;;;;3.65;1.67;;;;;;;;;;6190367;28;20156;-80
2023/05/20 14:15:49;;;;;;;;;;;;;;;;;;6199512;28;20054;-79
2023/05/20 14:18:52;;;;;;;2.92;1.58;;;;;;;;;;6197424;28;19917;-80
2023/05/20 14:21:53;;;;;;;11.90;2.00;;;;;;;;;;6199022;28;20061;-80
2023/05/20 14:24:55;;;;;;;2.85;1.77;;;;;;;;;;6200711;28;20141;-80
2023/05/20 14:27:57;;;;;;;82.78;6.10;;;;;;;;;;6200010;28;20204;-78
2023/05/20 14:30:58;;;;;;;7.68;2.13;;;;;;;;;;6201065;28;20050;-94
2023/05/20 14:34:07;;;;;;;4.20;2.40;;;;;;;;;;6196359;28;20149;-96
2023/05/20 14:37:10;;;;;;;3.45;2.30;;;;;;;;;;6191257;28;20050;-93
2023/05/20 14:40:22;;;;;;;4.07;2.20;;;;;;;;;;6201711;28;20058;-93
2023/05/20 14:43:25;;;;;;;18.27;2.58;;;;;;;;;;6170326;28;20089;-90
2023/05/20 14:46:27;;;;;;;5.70;2.38;;;;;;;;;;6197827;28;20116;-90
2023/05/20 14:49:42;;;;;;;5.28;2.85;;;;;;;;;;6196971;28;20062;-92
2023/05/20 14:52:43;;;;;;;2.83;2.17;;;;;;;;;;6168207;28;20081;-85
2023/05/20 14:55:45;;;;;;;3.65;2.47;;;;;;;;;;6195116;28;20318;-88
2023/05/20 14:58:47;;;;;;;3.75;2.38;;;;;;;;;;6196106;28;20239;-88
2023/05/20 15:01:48;;;;;;;4.30;2.70;;;;;;;;;;6196906;28;20121;-89
2023/05/20 15:04:52;;;;;;;3.70;2.53;;;;;;;;;;6162701;28;20271;-87
2023/05/20 15:07:53;;;;;;;5.80;2.57;;;;;;;;;;6195797;28;20327;-88
2023/05/20 15:10:55;;;;;;;4.03;2.60;;;;;;;;;;6195197;28;20070;-87
2023/05/20 15:13:57;;;;;;;3.58;2.50;;;;;;;;;;6194819;28;20122;-88
2023/05/20 15:16:59;;;;;;;4.60;2.50;;;;;;;;;;6194028;28;20051;-83
2023/05/20 15:20:02;;;;;;;4.57;2.70;;;;;;;;;;6197871;28;20306;-82
2023/05/20 15:23:04;;;;;;;5.38;2.78;;;;;;;;;;6197902;28;20176;-85
2023/05/20 15:26:05;;;;;;;4.95;2.67;;;;;;;;;;6198889;28;20054;-85
2023/05/20 15:29:07;;;;;;;5.78;2.55;;;;;;;;;;6196610;28;20101;-89
2023/05/20 15:32:09;;;;;;;3.88;2.55;;;;;;;;;;6180958;28;20053;-96
2023/05/20 15:35:15;;;;;;;3.53;2.83;;;;;;;;;;6195024;28;20050;-91
2023/05/20 15:38:17;;;;;;;4.60;2.72;;;;;;;;;;6199048;28;20105;-91
2023/05/20 15:41:20;;;;;;;4.15;2.97;;;;;;;;;;6200640;28;20069;-95
2023/05/20 15:44:22;;;;;;;7.60;3.57;;;;;;;;;;6199921;28;20054;-92
2023/05/20 15:47:24;;;;;;;6.00;3.60;;;;;;;;;;6197108;28;20065;-91
2023/05/20 15:50:28;;;;;;;6.45;4.03;;;;;;;;;;6177017;28;20063;-88
2023/05/20 15:53:30;;;;;;;10.63;4.82;;;;;;;;;;6177502;28;20051;-95
2023/05/20 15:56:32;;;;;;;5.65;4.45;;;;;;;;;;6174849;28;20050;-96
2023/05/20 15:59:34;;;;;;;7.47;5.03;;;;;;;;;;6176600;28;20065;-89
2023/05/20 16:02:35;;;;;;;8.80;5.03;;;;;;;;;;6175800;28;20055;-94
2023/05/20 16:05:38;;;;;;;7.60;5.55;;;;;;;;;;6174935;28;20150;-96
2023/05/20 16:08:40;;;;;;;8.10;5.07;;;;;;;;;;6175996;28;20058;-95
2023/05/20 16:11:42;;;;;;;10.00;5.53;;;;;;;;;;6176799;28;20106;-93
2023/05/20 16:14:44;;;;;;;10.80;5.55;;;;;;;;;;6175502;28;20054;-92
2023/05/20 16:17:47;;;;;;;7.57;5.05;;;;;;;;;;6175679;28;20062;-92
2023/05/20 16:20:50;;;;;;;8.15;5.05;;;;;;;;;;6173525;28;20093;-91
2023/05/20 16:23:52;;;;;;;;;;;;;;;;;;6174807;28;20069;-93
2023/05/20 16:26:54;;;;;;;7.40;4.78;;;;;;;;;;6174434;28;19985;-92
2023/05/20 16:29:56;;;;;;;5.80;4.13;;;;;;;;;;6176758;28;20055;-95
2023/05/20 16:32:58;;;;;;;7.10;4.70;;;;;;;;;;6177625;28;20538;-93
2023/05/20 16:36:02;;;;;;;5.95;4.85;;;;;;;;;;6174478;28;20059;-89
2023/05/20 16:39:05;;;;;;;6.30;4.57;;;;;;;;;;6176762;28;20046;-90
2023/05/20 16:42:08;;;;;;;6.60;4.57;;;;;;;;;;6172701;28;20051;-90
2023/05/20 16:45:10;;;;;;;7.90;5.15;;;;;;;;;;6174034;28;20194;-95
2023/05/20 16:48:12;;;;;;;7.35;4.85;;;;;;;;;;6172284;28;20055;-93
2023/05/20 16:51:15;;;;;;;8.18;4.82;;;;;;;;;;6188444;28;20481;-90
2023/05/20 16:54:17;;;;;;;6.65;4.63;;;;;;;;;;6199928;28;20085;-90
2023/05/20 16:57:19;;;;;;;6.32;4.40;;;;;;;;;;6198230;28;20050;-93
2023/05/20 17:00:21;;;;;;;6.22;4.55;;;;;;;;;;6197938;28;20077;-93
2023/05/20 17:03:22;;;;;;;6.38;4.82;;;;;;;;;;6197871;28;20297;-89
2023/05/20 17:06:26;;;;;;;7.07;4.60;;;;;;;;;;6198315;28;20207;-92
2023/05/20 17:09:30;;;;;;;7.05;4.93;;;;;;;;;;6163678;28;20365;-93
2023/05/20 17:12:32;;;;;;;6.65;4.80;;;;;;;;;;6199071;28;20054;-92
2023/05/20 17:15:35;;;;;;;5.65;4.60;;;;;;;;;;6181275;28;20049;-93
2023/05/20 17:18:37;;;;;;;7.40;4.85;;;;;;;;;;6180499;28;20282;-91
2023/05/20 17:21:41;;;;;;;8.23;4.80;;;;;;;;;;6196222;28;20050;-93
2023/05/20 17:24:42;;;;;;;5.70;4.25;;;;;;;;;;6198264;28;20070;-91
2023/05/20 17:27:44;;;;;;;7.53;4.57;;;;;;;;;;6196639;28;20105;-92
2023/05/20 17:30:46;;;;;;;7.15;4.95;;;;;;;;;;6180461;28;20137;-95
2023/05/20 17:33:48;;;;;;;8.23;4.50;;;;;;;;;;6196918;28;20058;-90
2023/05/20 17:36:52;;;;;;;6.55;4.75;;;;;;;;;;6196101;28;20046;-88
2023/05/20 17:39:53;;;;;;;6.22;4.50;;;;;;;;;;6197173;28;20140;-95
2023/05/20 17:42:55;;;;;;;10.57;5.97;;;;;;;;;;6195705;28;20334;-89
2023/05/20 17:45:57;;;;;;;6.45;4.90;;;;;;;;;;6198205;28;20054;-94
2023/05/20 17:48:58;;;;;;;8.07;5.40;;;;;;;;;;6196122;28;20054;-94
2023/05/20 17:52:02;;;;;;;8.27;5.65;;;;;;;;;;6199158;28;20054;-91
2023/05/20 17:55:05;;;;;;;11.52;6.45;;;;;;;;;;6181402;28;20062;-92
2023/05/20 17:58:07;;;;;;;11.33;6.30;;;;;;;;;;6196926;28;20062;-91
2023/05/20 18:01:09;;;;;;;9.57;6.32;;;;;;;;;;6194139;28;20309;-90
2023/05/20 18:04:11;;;;;;;7.45;5.85;;;;;;;;;;6164413;28;20069;-91
2023/05/20 18:07:16;;;;;;;9.10;6.68;;;;;;;;;;6166032;28;20169;-91
2023/05/20 18:10:18;;;;;;;9.27;7.28;;;;;;;;;;6181135;28;20050;-90